Time;durP1;ratioP1;P1;durP2;ratioP2;P2;SDS_P1;SDS_P2;PMS_P1;PMS_P2;Temp;Humidity;BMP_temperature;BMP_pressure;BME280_temperature;BME280_humidity;BME280_pressure;Samples;Min_cycle;Max_cycle;Signal;HPM_P1;HPM_P2
2023/03/10 00:01:28;;;;;;;5.50;2.10;;;6.70;41.60;;;;;;5036746;28;46513;-78
2023/03/10 00:03:55;;;;;;;4.43;1.97;;;6.70;41.60;;;;;;5038676;28;46381;-78
2023/03/10 00:06:23;;;;;;;2.87;1.33;;;6.70;41.50;;;;;;5042959;28;46426;-78
2023/03/10 00:08:49;;;;;;;3.30;1.50;;;6.70;42.90;;;;;;5039145;28;46329;-79
2023/03/10 00:11:16;;;;;;;4.50;1.80;;;6.70;41.70;;;;;;5023214;28;48076;-79
2023/03/10 00:13:41;;;;;;;4.60;2.07;;;6.70;41.70;;;;;;5018074;28;46406;-79
2023/03/10 00:16:08;;;;;;;6.80;1.80;;;6.70;41.70;;;;;;5036825;28;46278;-79
2023/03/10 00:18:34;;;;;;;5.10;1.60;;;6.60;41.60;;;;;;5023181;28;46346;-79
2023/03/10 00:21:00;;;;;;;3.20;1.27;;;6.60;41.70;;;;;;5040963;28;46377;-79
2023/03/10 00:23:25;;;;;;;8.20;1.70;;;6.60;41.60;;;;;;5037440;28;46389;-79
2023/03/10 00:25:57;;;;;;;4.90;1.43;;;6.60;41.70;;;;;;5023681;28;45895;-78
2023/03/10 00:28:23;;;;;;;4.63;1.50;;;6.50;41.60;;;;;;5017369;28;46511;-78
2023/03/10 00:31:07;;;;;;;2.30;1.07;;;6.50;41.60;;;;;;5036846;28;46259;-79
2023/03/10 00:33:33;;;;;;;4.70;1.60;;;6.50;41.60;;;;;;5036774;28;46443;-79
2023/03/10 00:36:06;;;;;;;2.20;1.10;;;6.50;41.60;;;;;;5031754;28;46770;-77
2023/03/10 00:38:32;;;;;;;5.67;1.70;;;6.50;41.60;;;;;;5037902;28;46393;-77
2023/03/10 00:41:03;;;;;;;8.60;1.43;;;6.50;41.60;;;;;;5038965;28;46316;-78
2023/03/10 00:43:28;;;;;;;5.23;1.43;;;6.60;41.60;;;;;;5035302;28;46276;-79
2023/03/10 00:45:54;;;;;;;3.70;1.63;;;6.60;41.50;;;;;;5034927;28;46437;-79
2023/03/10 00:48:20;;;;;;;4.93;1.63;;;6.60;41.50;;;;;;5038941;28;46610;-79
2023/03/10 00:50:45;;;;;;;4.07;1.97;;;6.60;41.40;;;;;;5035484;28;46248;-79
2023/03/10 00:53:11;;;;;;;7.23;2.50;;;6.70;41.30;;;;;;5035564;28;46384;-79
2023/03/10 00:55:36;;;;;;;4.90;2.13;;;6.70;41.10;;;;;;5016537;28;46290;-79
2023/03/10 00:58:02;;;;;;;10.00;1.93;;;6.70;41.00;;;;;;5033495;28;46263;-79
2023/03/10 01:00:27;;;;;;;5.60;1.50;;;6.80;41.00;;;;;;5036484;28;46373;-78
2023/03/10 01:02:53;;;;;;;3.90;1.53;;;6.80;41.10;;;;;;5042305;28;45755;-79
2023/03/10 01:05:19;;;;;;;2.63;1.23;;;6.80;41.00;;;;;;5035191;28;46371;-78
2023/03/10 01:07:44;;;;;;;6.53;1.63;;;6.90;41.00;;;;;;5038684;28;46457;-78
2023/03/10 01:10:11;;;;;;;2.93;1.60;;;6.90;40.80;;;;;;5014793;28;48340;-78
2023/03/10 01:12:36;;;;;;;4.63;1.77;;;7.00;40.90;;;;;;5035416;28;46393;-78
2023/03/10 01:15:02;;;;;;;4.00;1.30;;;7.10;41.10;;;;;;5046807;28;46426;-78
2023/03/10 01:17:28;;;;;;;3.93;1.40;;;7.10;40.80;;;;;;5035456;28;46650;-79
2023/03/10 01:19:53;;;;;;;2.40;1.00;;;7.20;40.80;;;;;;5038255;28;46326;-79
2023/03/10 01:22:19;;;;;;;5.30;1.10;;;7.20;40.80;;;;;;5035965;28;46373;-78
2023/03/10 01:24:44;;;;;;;6.80;1.57;;;7.20;40.60;;;;;;5020062;28;46482;-78
2023/03/10 01:27:10;;;;;;;5.30;1.70;;;7.30;40.50;;;;;;5043999;28;46219;-79
2023/03/10 01:29:35;;;;;;;6.70;1.57;;;7.30;40.50;;;;;;5031547;28;46311;-79
2023/03/10 01:32:01;;;;;;;4.23;1.17;;;7.30;40.70;;;;;;5035639;28;50198;-78
2023/03/10 01:34:26;;;;;;;3.00;1.30;;;7.30;40.80;;;;;;5032980;28;46294;-79
2023/03/10 01:36:52;;;;;;;4.53;1.50;;;7.30;40.70;;;;;;5035946;28;46611;-79
2023/03/10 01:39:18;;;;;;;5.87;1.47;;;7.30;40.80;;;;;;5036356;28;46415;-78
2023/03/10 01:41:43;;;;;;;2.80;1.43;;;7.30;40.70;;;;;;5037114;28;46512;-78
2023/03/10 01:44:15;;;;;;;5.23;1.47;;;7.40;40.70;;;;;;5042715;28;45666;-77
2023/03/10 01:46:46;;;;;;;2.90;1.33;;;7.40;40.60;;;;;;5034442;28;46338;-79
2023/03/10 01:49:18;;;;;;;4.23;1.20;;;7.50;40.50;;;;;;5030245;28;46474;-79
2023/03/10 01:51:58;;;;;;;5.30;1.17;;;7.50;40.40;;;;;;5021690;28;46356;-80
2023/03/10 01:54:29;;;;;;;3.60;1.23;;;7.60;40.40;;;;;;5036976;28;46423;-79
2023/03/10 01:56:56;;;;;;;5.63;1.07;;;7.50;40.20;;;;;;5034868;28;45960;-78
2023/03/10 01:59:22;;;;;;;5.83;1.87;;;7.60;40.20;;;;;;5031414;28;46577;-78
2023/03/10 02:01:50;;;;;;;3.00;1.40;;;7.70;40.00;;;;;;5035960;28;46505;-79
2023/03/10 02:04:23;;;;;;;4.57;1.33;;;7.70;39.90;;;;;;5034353;28;46435;-78
2023/03/10 02:06:50;;;;;;;3.63;1.20;;;7.70;39.60;;;;;;5035883;28;45898;-79
2023/03/10 02:09:17;;;;;;;2.50;1.30;;;7.80;39.40;;;;;;5035285;28;46369;-78
2023/03/10 02:11:44;;;;;;;3.87;1.33;;;7.90;39.20;;;;;;5034498;28;46428;-79
2023/03/10 02:14:10;;;;;;;4.07;1.23;;;7.90;39.10;;;;;;5022183;28;46464;-78
2023/03/10 02:16:35;;;;;;;5.20;1.10;;;7.90;39.00;;;;;;5038852;28;46468;-79
2023/03/10 02:19:05;;;;;;;6.17;1.37;;;8.00;38.90;;;;;;5036372;28;46412;-79
2023/03/10 02:21:53;;;;;;;3.73;1.50;;;8.00;38.90;;;;;;5036134;28;46485;-78
2023/03/10 02:24:26;;;;;;;3.10;1.40;;;8.00;38.70;;;;;;5039119;28;45925;-79
2023/03/10 02:27:14;;;;;;;3.53;1.57;;;8.00;38.80;;;;;;5023116;28;46244;-79
2023/03/10 02:29:55;;;;;;;3.47;1.33;;;7.90;38.60;;;;;;5036116;28;47079;-79
2023/03/10 02:32:21;;;;;;;3.00;1.40;;;7.90;38.80;;;;;;5033952;28;46219;-78
2023/03/10 02:34:47;;;;;;;3.80;1.30;;;7.90;38.90;;;;;;5032753;28;46248;-78
2023/03/10 02:37:27;;;;;;;5.57;1.30;;;7.80;38.80;;;;;;5042706;28;46569;-78
2023/03/10 02:39:53;;;;;;;3.03;1.33;;;7.80;38.80;;;;;;5036320;28;46332;-78
2023/03/10 02:42:19;;;;;;;3.37;1.20;;;7.90;39.00;;;;;;5037817;28;46421;-79
2023/03/10 02:44:47;;;;;;;3.97;1.57;;;7.90;38.80;;;;;;5037655;28;46479;-79
2023/03/10 02:47:13;;;;;;;2.50;1.40;;;8.00;38.80;;;;;;5037584;28;46364;-79
2023/03/10 02:49:41;;;;;;;2.23;1.00;;;8.00;38.50;;;;;;5037329;28;46214;-78
2023/03/10 02:52:13;;;;;;;3.80;1.30;;;8.00;38.50;;;;;;5034895;28;45924;-78
2023/03/10 02:54:39;;;;;;;4.00;1.27;;;7.90;38.70;;;;;;5042801;28;46530;-78
2023/03/10 02:57:04;;;;;;;4.60;1.33;;;7.70;39.20;;;;;;5025812;28;46020;-78
2023/03/10 02:59:30;;;;;;;4.00;1.40;;;7.60;39.80;;;;;;5014925;28;46484;-83
2023/03/10 03:01:55;;;;;;;12.30;4.20;;;7.60;41.30;;;;;;5041975;28;46297;-78
2023/03/10 03:04:22;;;;;;;21.43;9.20;;;7.50;40.10;;;;;;5020669;28;46426;-78
2023/03/10 03:06:47;;;;;;;22.13;9.73;;;7.50;41.30;;;;;;5039870;28;46365;-78
2023/03/10 03:09:13;;;;;;;14.97;7.03;;;7.50;39.90;;;;;;5042483;28;47096;-78
2023/03/10 03:11:38;;;;;;;34.17;15.23;;;7.50;40.00;;;;;;5036913;28;47471;-78
2023/03/10 03:14:04;;;;;;;39.13;16.20;;;7.60;40.10;;;;;;5035387;28;46418;-78
2023/03/10 03:16:30;;;;;;;25.00;9.97;;;7.60;40.00;;;;;;5034889;28;46325;-77
2023/03/10 03:18:55;;;;;;;19.43;6.47;;;7.60;39.80;;;;;;5022452;28;47519;-78
2023/03/10 03:21:21;;;;;;;3.70;1.90;;;7.60;39.70;;;;;;5033658;28;46531;-78
2023/03/10 03:23:47;;;;;;;19.80;7.27;;;7.60;39.70;;;;;;5039373;28;46477;-79
2023/03/10 03:26:16;;;;;;;30.27;15.27;;;7.60;40.00;;;;;;5025480;28;46476;-78
2023/03/10 03:28:44;;;;;;;11.43;4.27;;;7.50;40.20;;;;;;5020733;28;49258;-78
2023/03/10 03:31:17;;;;;;;8.40;3.53;;;7.50;40.40;;;;;;5043214;28;46291;-78
2023/03/10 03:33:43;;;;;;;7.40;2.93;;;7.60;40.30;;;;;;5040636;28;46468;-80
2023/03/10 03:36:09;;;;;;;8.50;2.70;;;7.60;40.10;;;;;;5038998;28;46727;-79
2023/03/10 03:38:34;;;;;;;7.70;2.83;;;7.70;40.10;;;;;;5019104;28;47216;-78
2023/03/10 03:41:00;;;;;;;12.20;4.50;;;7.60;39.80;;;;;;5038827;28;46381;-78
2023/03/10 03:43:28;;;;;;;5.03;1.97;;;7.70;39.50;;;;;;5039457;28;46258;-78
2023/03/10 03:45:54;;;;;;;4.80;1.87;;;7.80;39.50;;;;;;5036460;28;46584;-79
2023/03/10 03:48:20;;;;;;;6.67;1.97;;;7.80;39.40;;;;;;5023148;28;48091;-78
2023/03/10 03:50:47;;;;;;;5.10;2.70;;;7.80;39.10;;;;;;5044216;28;46417;-78
2023/03/10 03:53:12;;;;;;;22.40;10.63;;;7.90;38.90;;;;;;5037678;28;46341;-81
2023/03/10 03:55:38;;;;;;;11.00;4.63;;;8.00;38.80;;;;;;5043356;28;46264;-79
2023/03/10 03:58:03;;;;;;;4.50;2.00;;;8.00;38.60;;;;;;5040971;28;46527;-78
2023/03/10 04:00:29;;;;;;;7.90;2.87;;;8.10;38.70;;;;;;5038676;28;47183;-77
2023/03/10 04:02:55;;;;;;;5.43;2.40;;;8.10;38.40;;;;;;5025097;28;46388;-79
2023/03/10 04:05:21;;;;;;;12.40;3.97;;;8.20;38.50;;;;;;5033739;28;46600;-78
2023/03/10 04:07:48;;;;;;;6.17;3.13;;;8.20;38.40;;;;;;5036471;28;46455;-78
2023/03/10 04:10:17;;;;;;;8.67;3.67;;;8.20;38.30;;;;;;5024910;28;46499;-77
2023/03/10 04:12:42;;;;;;;7.60;3.80;;;8.20;38.30;;;;;;5037334;28;46478;-78
2023/03/10 04:15:08;;;;;;;9.70;4.30;;;8.20;38.40;;;;;;5019819;28;46379;-78
2023/03/10 04:17:35;;;;;;;14.93;6.30;;;8.20;38.70;;;;;;5017466;28;49009;-78
2023/03/10 04:20:00;;;;;;;9.23;4.47;;;8.20;39.00;;;;;;5037315;28;46475;-78
2023/03/10 04:22:26;;;;;;;13.17;6.87;;;8.10;39.20;;;;;;5036847;28;46238;-79
2023/03/10 04:24:52;;;;;;;12.57;7.10;;;8.10;39.60;;;;;;5034240;28;46435;-78
2023/03/10 04:27:18;;;;;;;9.80;2.23;;;8.10;39.70;;;;;;5036668;28;46392;-78
2023/03/10 04:29:44;;;;;;;13.77;5.40;;;8.10;39.70;;;;;;5036202;28;46425;-78
2023/03/10 04:32:09;;;;;;;7.63;2.90;;;8.20;39.70;;;;;;5022386;28;46347;-77
2023/03/10 04:34:35;;;;;;;7.17;1.97;;;8.20;39.90;;;;;;5035674;28;46351;-78
2023/03/10 04:37:00;;;;;;;5.00;2.37;;;8.20;40.00;;;;;;5037293;28;46369;-79
2023/03/10 04:39:26;;;;;;;5.50;2.33;;;8.30;40.00;;;;;;5037509;28;46411;-79
2023/03/10 04:41:51;;;;;;;8.70;2.20;;;8.40;40.00;;;;;;5034001;28;45815;-78
2023/03/10 04:44:17;;;;;;;4.53;1.40;;;8.50;39.90;;;;;;5038818;28;46396;-78
2023/03/10 04:46:42;;;;;;;8.37;1.37;;;8.60;40.00;;;;;;5037117;28;46435;-79
2023/03/10 04:49:08;;;;;;;3.87;1.63;;;8.60;40.00;;;;;;5036985;28;46896;-78
2023/03/10 04:51:34;;;;;;;3.87;1.40;;;8.70;40.20;;;;;;5036783;28;46386;-78
2023/03/10 04:54:00;;;;;;;4.17;1.47;;;8.80;40.10;;;;;;5023508;28;46472;-79
2023/03/10 04:56:25;;;;;;;5.43;1.43;;;8.90;40.30;;;;;;5041606;28;46922;-79
2023/03/10 04:58:51;;;;;;;4.07;1.30;;;9.00;40.50;;;;;;5016394;28;46127;-77
2023/03/10 05:01:16;;;;;;;4.53;1.47;;;9.10;40.60;;;;;;5037914;28;46218;-78
2023/03/10 05:03:42;;;;;;;23.47;7.70;;;9.10;41.50;;;;;;5025833;28;46585;-78
2023/03/10 05:06:19;;;;;;;4.90;2.53;;;9.10;41.90;;;;;;5039328;28;47134;-78
2023/03/10 05:08:45;;;;;;;2.80;1.20;;;9.20;41.90;;;;;;5036001;28;46344;-78
2023/03/10 05:11:11;;;;;;;2.80;1.10;;;9.20;41.80;;;;;;5038752;28;46412;-78
2023/03/10 05:13:36;;;;;;;1.20;0.60;;;9.10;44.40;;;;;;5035986;28;46635;-76
2023/03/10 05:16:02;;;;;;;1.27;0.60;;;8.90;46.30;;;;;;5034590;28;46400;-79
2023/03/10 05:18:28;;;;;;;2.50;0.80;;;8.80;48.00;;;;;;5032137;28;46373;-79
2023/03/10 05:20:55;;;;;;;3.87;0.80;;;8.80;49.00;;;;;;5033285;28;46356;-79
2023/03/10 05:23:21;;;;;;;3.53;0.87;;;8.70;50.10;;;;;;5035951;28;46507;-78
2023/03/10 05:25:48;;;;;;;1.83;0.93;;;8.70;50.90;;;;;;5041196;28;47227;-78
2023/03/10 05:28:13;;;;;;;2.23;1.20;;;8.50;51.30;;;;;;5031043;28;46432;-78
2023/03/10 05:30:39;;;;;;;1.50;0.80;;;8.50;52.20;;;;;;5035709;28;46496;-78
2023/03/10 05:33:04;;;;;;;1.33;0.73;;;8.60;51.40;;;;;;5037163;28;46211;-78
2023/03/10 05:35:30;;;;;;;4.70;1.00;;;8.80;51.30;;;;;;5031345;28;46988;-78
2023/03/10 05:37:55;;;;;;;1.63;1.07;;;8.90;50.20;;;;;;5035446;28;46263;-77
2023/03/10 05:40:21;;;;;;;1.60;1.00;;;8.90;49.60;;;;;;5035381;28;46383;-78
2023/03/10 05:42:48;;;;;;;2.53;0.90;;;8.90;49.20;;;;;;5023315;28;46492;-78
2023/03/10 05:45:14;;;;;;;2.43;1.17;;;8.90;49.00;;;;;;5036260;28;46678;-78
2023/03/10 05:47:40;;;;;;;3.47;1.10;;;8.80;48.90;;;;;;5034071;28;46398;-79
2023/03/10 05:50:07;;;;;;;4.07;1.37;;;8.80;48.90;;;;;;5020890;28;46496;-78
2023/03/10 05:52:38;;;;;;;2.50;1.20;;;8.80;48.80;;;;;;5023239;28;47093;-78
2023/03/10 05:55:04;;;;;;;2.10;0.83;;;8.70;48.80;;;;;;5036502;28;47824;-78
2023/03/10 05:57:29;;;;;;;4.33;1.00;;;8.70;48.70;;;;;;5033487;28;46554;-78
2023/03/10 05:59:55;;;;;;;1.83;0.90;;;8.70;48.70;;;;;;5029851;28;46479;-79
2023/03/10 06:02:20;;;;;;;7.43;1.10;;;8.70;48.80;;;;;;5048499;28;45995;-80
2023/03/10 06:04:46;;;;;;;2.17;0.90;;;8.70;48.80;;;;;;5050953;28;46247;-80
2023/03/10 06:07:11;;;;;;;1.67;0.90;;;8.70;48.70;;;;;;5040375;28;46392;-78
2023/03/10 06:09:37;;;;;;;1.90;1.00;;;8.70;48.60;;;;;;5032563;28;46455;-78
2023/03/10 06:12:03;;;;;;;4.93;1.00;;;8.70;48.40;;;;;;5033323;28;46290;-77
2023/03/10 06:14:28;;;;;;;2.80;1.00;;;8.70;48.20;;;;;;5015592;28;47769;-78
2023/03/10 06:16:55;;;;;;;2.00;0.90;;;8.80;48.10;;;;;;5033925;28;46388;-79
2023/03/10 06:19:21;;;;;;;2.73;1.10;;;8.80;47.80;;;;;;5037874;28;46367;-79
2023/03/10 06:21:47;;;;;;;4.20;1.23;;;8.80;47.70;;;;;;5020974;28;46420;-78
2023/03/10 06:24:12;;;;;;;2.00;1.17;;;8.90;47.50;;;;;;5045117;28;47199;-79
2023/03/10 06:26:38;;;;;;;1.33;0.70;;;8.90;47.20;;;;;;5034628;28;46332;-78
2023/03/10 06:29:05;;;;;;;2.03;0.90;;;9.00;47.30;;;;;;5018769;28;45965;-79
2023/03/10 06:31:30;;;;;;;2.83;1.10;;;9.10;47.20;;;;;;5023116;28;46508;-79
2023/03/10 06:33:56;;;;;;;1.77;0.80;;;9.10;46.90;;;;;;5018585;28;47454;-79
2023/03/10 06:36:22;;;;;;;2.27;1.00;;;9.20;46.70;;;;;;5044309;28;46270;-80
2023/03/10 06:38:48;;;;;;;2.33;1.03;;;9.20;46.50;;;;;;5043532;28;46393;-80
2023/03/10 06:41:15;;;;;;;32.53;13.07;;;9.30;46.40;;;;;;5038163;28;46497;-80
2023/03/10 06:43:41;;;;;;;4.17;1.43;;;9.30;46.40;;;;;;5036807;28;46940;-80
2023/03/10 06:46:08;;;;;;;2.80;1.20;;;9.30;46.20;;;;;;5045623;28;46609;-79
2023/03/10 06:48:35;;;;;;;4.07;2.33;;;9.40;46.20;;;;;;5025698;28;46381;-81
2023/03/10 06:51:03;;;;;;;5.60;4.20;;;9.40;46.00;;;;;;5033505;28;46272;-79
2023/03/10 06:53:29;;;;;;;13.33;7.67;;;9.40;45.90;;;;;;5034289;28;46872;-78
2023/03/10 06:56:10;;;;;;;8.67;5.07;;;9.60;45.90;;;;;;5035752;28;46396;-79
2023/03/10 06:58:37;;;;;;;5.60;2.53;;;9.50;45.60;;;;;;5033523;28;46495;-83
2023/03/10 07:01:04;;;;;;;2.70;1.40;;;9.60;45.50;;;;;;5032384;28;46720;-81
2023/03/10 07:03:30;;;;;;;4.77;2.30;;;9.60;45.30;;;;;;5043068;28;46451;-80
2023/03/10 07:05:57;;;;;;;12.10;5.50;;;9.70;45.30;;;;;;5041098;28;46381;-79
2023/03/10 07:08:24;;;;;;;7.83;4.80;;;9.70;45.20;;;;;;5030323;28;46344;-79
2023/03/10 07:10:50;;;;;;;9.57;4.63;;;9.80;45.20;;;;;;5047771;28;46325;-79
2023/03/10 07:13:16;;;;;;;9.60;5.00;;;9.70;45.20;;;;;;5029959;28;48338;-79
2023/03/10 07:15:43;;;;;;;7.93;5.43;;;9.80;46.30;;;;;;5025877;28;46731;-79
2023/03/10 07:18:09;;;;;;;7.27;4.37;;;9.80;44.90;;;;;;5047575;28;46306;-78
2023/03/10 07:20:38;;;;;;;11.53;7.07;;;10.00;43.70;;;;;;5039658;28;46632;-79
2023/03/10 07:23:04;;;;;;;7.73;4.67;;;10.10;43.30;;;;;;5047509;28;46576;-78
2023/03/10 07:25:30;;;;;;;10.30;5.17;;;10.20;43.20;;;;;;5050523;28;46408;-78
2023/03/10 07:27:55;;;;;;;6.30;3.40;;;10.40;42.70;;;;;;5034767;28;46502;-78
2023/03/10 07:30:21;;;;;;;7.00;4.13;;;10.50;42.20;;;;;;5028693;28;46393;-78
2023/03/10 07:32:49;;;;;;;4.70;2.70;;;10.60;41.80;;;;;;5042738;28;46379;-79
2023/03/10 07:35:15;;;;;;;8.63;3.83;;;10.70;41.30;;;;;;5044323;28;46404;-79
2023/03/10 07:37:41;;;;;;;11.97;6.83;;;10.80;41.10;;;;;;5027122;28;46402;-79
2023/03/10 07:40:08;;;;;;;42.13;21.50;;;10.90;40.90;;;;;;5035577;28;46439;-79
2023/03/10 07:42:34;;;;;;;50.80;27.17;;;11.00;40.60;;;;;;5036814;28;47298;-77
2023/03/10 07:44:59;;;;;;;18.70;7.80;;;11.10;40.50;;;;;;5040151;28;46348;-80
2023/03/10 07:47:25;;;;;;;8.20;3.90;;;11.20;40.50;;;;;;5036329;28;47038;-80
2023/03/10 07:49:50;;;;;;;6.23;2.63;;;11.20;40.40;;;;;;5036819;28;46611;-82
2023/03/10 07:52:17;;;;;;;4.33;2.20;;;11.50;40.50;;;;;;5025697;28;48071;-80
2023/03/10 07:54:43;;;;;;;5.27;2.67;;;11.50;39.90;;;;;;5040789;28;46404;-81
2023/03/10 07:57:10;;;;;;;2.83;1.43;;;11.60;39.90;;;;;;5056479;28;46485;-80
2023/03/10 07:59:37;;;;;;;8.27;2.90;;;11.70;40.00;;;;;;5041659;28;46346;-79
2023/03/10 08:02:03;;;;;;;4.13;1.67;;;11.80;39.50;;;;;;5019418;28;48559;-80
2023/03/10 08:04:29;;;;;;;5.60;2.10;;;11.90;38.60;;;;;;5033732;28;46426;-81
2023/03/10 08:06:54;;;;;;;4.27;1.77;;;12.00;38.70;;;;;;5036987;28;46368;-80
2023/03/10 08:09:20;;;;;;;2.93;1.60;;;12.10;38.30;;;;;;5037600;28;46321;-81
2023/03/10 08:11:45;;;;;;;2.30;1.20;;;12.20;39.20;;;;;;5046442;28;47268;-82
2023/03/10 08:14:11;;;;;;;4.37;1.80;;;12.20;37.20;;;;;;5028891;28;46740;-82
2023/03/10 08:16:37;;;;;;;8.63;2.03;;;12.30;37.40;;;;;;5036538;28;46289;-78
2023/03/10 08:19:03;;;;;;;6.00;2.55;;;12.30;37.20;;;;;;5037282;28;46324;-80
2023/03/10 08:21:29;;;;;;;10.90;2.90;;;12.40;36.10;;;;;;5033930;28;48306;-82
2023/03/10 08:23:54;;;;;;;4.33;1.90;;;12.40;36.20;;;;;;5044338;28;46435;-79
2023/03/10 08:26:20;;;;;;;4.30;2.40;;;12.50;36.10;;;;;;5035926;28;47468;-79
2023/03/10 08:28:46;;;;;;;2.73;1.63;;;12.50;36.40;;;;;;5034844;28;46432;-80
2023/03/10 08:31:15;;;;;;;5.50;1.73;;;12.60;36.30;;;;;;5044715;28;47326;-82
2023/03/10 08:33:41;;;;;;;4.60;1.83;;;12.70;36.20;;;;;;5047498;28;46368;-79
2023/03/10 08:36:11;;;;;;;4.43;1.57;;;12.70;35.70;;;;;;5048217;28;46385;-79
2023/03/10 08:38:37;;;;;;;10.10;5.33;;;12.70;35.40;;;;;;5039445;28;45808;-82
2023/03/10 08:41:17;;;;;;;29.47;13.83;;;12.80;35.30;;;;;;5026765;28;49032;-81
2023/03/10 08:43:43;;;;;;;14.30;6.00;;;12.90;35.00;;;;;;5033321;28;46608;-81
2023/03/10 08:46:09;;;;;;;14.10;6.33;;;13.00;34.90;;;;;;5015626;28;46461;-79
2023/03/10 08:48:35;;;;;;;21.40;8.00;;;13.10;34.90;;;;;;5035687;28;46368;-80
2023/03/10 08:51:00;;;;;;;16.80;7.37;;;13.40;34.80;;;;;;5032654;28;46185;-81
2023/03/10 08:53:26;;;;;;;16.37;6.50;;;13.60;34.30;;;;;;5027145;28;46422;-82
2023/03/10 08:55:51;;;;;;;4.63;1.57;;;13.70;33.00;;;;;;5032063;28;46523;-80
2023/03/10 08:58:17;;;;;;;4.27;1.40;;;13.80;32.80;;;;;;5031393;28;46512;-80
2023/03/10 09:00:43;;;;;;;4.57;2.00;;;14.10;32.40;;;;;;5034587;28;46335;-80
2023/03/10 09:03:10;;;;;;;2.77;1.00;;;14.20;31.20;;;;;;5036469;28;46293;-81
2023/03/10 09:05:36;;;;;;;2.90;1.30;;;14.00;29.00;;;;;;5034613;28;45871;-79
2023/03/10 09:08:02;;;;;;;3.63;1.10;;;13.80;29.90;;;;;;5033391;28;46478;-81
2023/03/10 09:10:28;;;;;;;4.70;2.43;;;13.60;30.10;;;;;;5018613;28;48707;-82
2023/03/10 09:12:54;;;;;;;1.73;0.77;;;13.00;29.80;;;;;;5022144;28;46437;-80
2023/03/10 09:15:20;;;;;;;1.47;0.70;;;12.70;30.20;;;;;;5031555;28;46440;-80
2023/03/10 09:17:46;;;;;;;2.00;0.70;;;12.20;31.50;;;;;;5015787;28;46461;-78
2023/03/10 09:20:13;;;;;;;1.57;0.77;;;11.90;32.70;;;;;;5013449;28;48090;-80
2023/03/10 09:22:39;;;;;;;3.00;0.90;;;11.70;34.00;;;;;;5038709;28;46738;-80
2023/03/10 09:25:05;;;;;;;2.17;0.80;;;11.40;36.60;;;;;;5037407;28;46360;-81
2023/03/10 09:27:30;;;;;;;1.93;0.87;;;11.40;37.40;;;;;;5037168;28;46504;-79
2023/03/10 09:29:56;;;;;;;3.30;0.73;;;11.30;38.60;;;;;;5035715;28;46493;-79
2023/03/10 09:32:22;;;;;;;2.70;0.80;;;11.30;39.10;;;;;;5036729;28;46363;-80
2023/03/10 09:34:48;;;;;;;2.43;0.70;;;11.40;38.20;;;;;;5038279;28;46837;-81
2023/03/10 09:37:13;;;;;;;1.43;0.70;;;11.50;37.50;;;;;;5023366;28;47111;-80
2023/03/10 09:39:39;;;;;;;1.30;0.60;;;11.50;37.10;;;;;;5023107;28;48357;-81
2023/03/10 09:42:13;;;;;;;1.50;0.70;;;11.50;36.90;;;;;;5035047;28;46424;-82
2023/03/10 09:45:00;;;;;;;2.43;0.83;;;11.50;36.80;;;;;;5017759;28;46465;-81
2023/03/10 09:47:48;;;;;;;2.00;1.00;;;11.60;36.60;;;;;;5003585;28;46999;-79
2023/03/10 09:50:39;;;;;;;3.07;0.83;;;11.60;36.40;;;;;;5034447;28;48887;-81
2023/03/10 09:53:25;;;;;;;1.60;0.70;;;11.50;36.30;;;;;;5035835;28;46425;-79
2023/03/10 09:55:51;;;;;;;2.80;0.90;;;11.40;36.80;;;;;;5015862;28;46582;-80
2023/03/10 09:58:38;;;;;;;1.50;0.60;;;11.50;36.70;;;;;;5046161;28;46661;-80
2023/03/10 10:01:08;;;;;;;4.00;0.77;;;11.60;36.50;;;;;;5042940;28;47673;-80
2023/03/10 10:03:41;;;;;;;3.63;0.70;;;11.50;36.60;;;;;;5023700;28;46480;-79
2023/03/10 10:06:13;;;;;;;2.70;0.63;;;11.50;37.90;;;;;;5025201;28;46467;-79
2023/03/10 10:08:53;;;;;;;1.60;0.70;;;11.20;37.90;;;;;;5025999;28;46422;-78
2023/03/10 10:11:18;;;;;;;1.37;0.60;;;11.00;38.30;;;;;;5042007;28;47040;-80
2023/03/10 10:13:44;;;;;;;1.80;1.00;;;10.90;38.50;;;;;;5042249;28;46813;-80
2023/03/10 10:16:41;;;;;;;1.77;0.70;;;10.80;39.10;;;;;;5040139;28;46392;-76
2023/03/10 10:19:23;;;;;;;1.50;0.70;;;10.80;39.10;;;;;;5043056;28;46788;-79
2023/03/10 10:21:51;;;;;;;1.93;0.60;;;10.80;38.80;;;;;;5036775;28;47114;-79
2023/03/10 10:24:17;;;;;;;1.20;0.60;;;10.60;38.90;;;;;;5036415;28;46285;-80
2023/03/10 10:26:43;;;;;;;1.53;0.67;;;10.70;39.00;;;;;;5039026;28;46397;-81
2023/03/10 10:29:21;;;;;;;1.60;0.67;;;10.90;38.60;;;;;;5035096;28;45891;-83
2023/03/10 10:32:10;;;;;;;1.20;0.60;;;11.30;38.00;;;;;;5038641;28;47647;-79
2023/03/10 10:34:38;;;;;;;1.27;0.60;;;11.70;37.20;;;;;;5035785;28;46327;-79
2023/03/10 10:37:20;;;;;;;1.30;0.53;;;12.00;37.20;;;;;;5044634;28;46372;-78
2023/03/10 10:39:48;;;;;;;1.50;0.70;;;12.00;37.30;;;;;;5032618;28;46272;-80
2023/03/10 10:42:27;;;;;;;2.20;0.80;;;12.00;37.80;;;;;;5046076;28;46759;-80
2023/03/10 10:44:55;;;;;;;3.77;0.90;;;11.90;38.10;;;;;;5021426;28;46884;-77
2023/03/10 10:47:28;;;;;;;2.03;0.77;;;11.70;38.40;;;;;;5038040;28;46541;-78
2023/03/10 10:50:07;;;;;;;1.53;0.80;;;11.60;38.70;;;;;;5020122;28;46473;-79
2023/03/10 10:52:32;;;;;;;6.00;0.90;;;11.60;39.10;;;;;;5018483;28;48402;-80
2023/03/10 10:55:01;;;;;;;2.50;0.90;;;11.80;38.90;;;;;;5035414;28;46334;-78
2023/03/10 10:57:37;;;;;;;5.97;1.10;;;11.80;38.80;;;;;;5034113;28;46333;-80
2023/03/10 11:00:30;;;;;;;4.93;1.17;;;11.90;38.90;;;;;;5035819;28;46491;-78
2023/03/10 11:02:56;;;;;;;2.80;0.90;;;11.90;38.70;;;;;;5030644;28;46574;-78
2023/03/10 11:05:39;;;;;;;3.07;0.80;;;11.90;38.40;;;;;;5033647;28;46430;-79
2023/03/10 11:08:30;;;;;;;5.00;0.80;;;12.10;37.90;;;;;;5030464;28;45830;-80
2023/03/10 11:11:20;;;;;;;3.70;1.00;;;12.40;37.30;;;;;;5031416;28;46471;-79
2023/03/10 11:14:12;;;;;;;1.70;0.77;;;12.70;36.60;;;;;;5035007;28;47411;-80
2023/03/10 11:16:52;;;;;;;2.67;0.80;;;12.60;36.30;;;;;;5013611;28;46578;-79
2023/03/10 11:19:31;;;;;;;4.70;1.30;;;12.80;35.70;;;;;;5042632;28;47287;-79
2023/03/10 11:22:09;;;;;;;2.90;1.23;;;13.00;35.40;;;;;;5039097;28;46480;-77
2023/03/10 11:24:46;;;;;;;1.50;0.70;;;13.30;34.40;;;;;;5038499;28;46326;-76
2023/03/10 11:27:23;;;;;;;3.30;0.90;;;13.50;34.10;;;;;;5037204;28;46418;-78
2023/03/10 11:30:11;;;;;;;1.77;0.77;;;13.60;33.80;;;;;;5018263;28;46470;-77
2023/03/10 11:32:52;;;;;;;3.30;1.03;;;13.90;33.20;;;;;;5033729;28;46886;-79
2023/03/10 11:35:31;;;;;;;2.43;0.80;;;13.90;32.50;;;;;;5030036;28;46441;-78
2023/03/10 11:38:22;;;;;;;2.63;0.70;;;14.10;32.00;;;;;;5033152;28;46484;-78
2023/03/10 11:40:55;;;;;;;2.30;0.80;;;14.20;31.10;;;;;;5032436;28;46279;-78
2023/03/10 11:44:02;;;;;;;6.07;1.07;;;14.30;30.20;;;;;;5037556;28;46058;-77
2023/03/10 11:46:34;;;;;;;1.80;0.87;;;14.30;29.80;;;;;;5008058;28;46586;-79
2023/03/10 11:49:06;;;;;;;3.73;0.70;;;14.00;28.90;;;;;;5033364;28;46872;-78
2023/03/10 11:51:49;;;;;;;2.83;0.97;;;13.80;29.20;;;;;;5034069;28;46387;-79
2023/03/10 11:54:38;;;;;;;2.60;1.00;;;13.80;29.20;;;;;;5034749;28;46434;-77
2023/03/10 11:57:12;;;;;;;2.43;0.70;;;14.00;28.90;;;;;;5039103;28;46404;-78
2023/03/10 11:59:46;;;;;;;2.40;0.87;;;14.10;28.90;;;;;;5036894;28;46490;-78
2023/03/10 12:02:23;;;;;;;2.57;0.80;;;14.30;28.30;;;;;;5032307;28;46467;-79
2023/03/10 12:05:06;;;;;;;3.17;1.00;;;14.30;27.90;;;;;;5031256;28;46332;-78
2023/03/10 12:07:36;;;;;;;1.90;0.90;;;14.20;27.40;;;;;;5021805;28;48584;-83
2023/03/10 12:10:15;;;;;;;3.00;1.00;;;14.10;27.40;;;;;;5020974;28;46355;-79
2023/03/10 12:12:43;;;;;;;2.87;0.77;;;13.90;26.90;;;;;;5036078;28;46388;-78
2023/03/10 12:15:18;;;;;;;2.93;0.90;;;13.90;26.90;;;;;;5041506;28;46370;-79
2023/03/10 12:17:45;;;;;;;1.90;0.80;;;13.90;26.90;;;;;;5040852;28;46557;-78
2023/03/10 12:20:14;;;;;;;2.10;0.70;;;13.90;27.00;;;;;;5035841;28;46317;-77
2023/03/10 12:22:45;;;;;;;2.07;0.80;;;13.80;27.00;;;;;;5036398;28;45698;-79
2023/03/10 12:25:28;;;;;;;4.07;0.80;;;13.90;27.10;;;;;;5029195;28;46443;-77
2023/03/10 12:28:16;;;;;;;3.40;0.80;;;13.60;26.70;;;;;;5017140;28;49298;-77
2023/03/10 12:30:58;;;;;;;4.27;0.83;;;13.40;27.20;;;;;;5034599;28;46451;-78
2023/03/10 12:33:30;;;;;;;1.63;0.70;;;13.50;27.10;;;;;;5029982;28;46309;-77
2023/03/10 12:36:11;;;;;;;2.70;1.00;;;13.50;27.10;;;;;;5037723;28;46315;-80
2023/03/10 12:38:47;;;;;;;5.63;1.40;;;13.70;27.20;;;;;;5033456;28;46519;-79
2023/03/10 12:41:43;;;;;;;2.43;0.90;;;13.70;27.00;;;;;;5033208;28;46118;-79
2023/03/10 12:44:32;;;;;;;2.20;1.00;;;13.50;26.80;;;;;;5033805;28;46368;-79
2023/03/10 12:47:07;;;;;;;2.80;0.80;;;13.50;27.20;;;;;;5028211;28;46455;-79
2023/03/10 12:49:39;;;;;;;2.17;0.80;;;13.70;27.00;;;;;;5017388;28;49119;-79
2023/03/10 12:52:28;;;;;;;1.60;0.77;;;13.70;26.70;;;;;;5033904;28;46452;-78
2023/03/10 12:55:18;;;;;;;3.00;1.13;;;13.50;26.70;;;;;;5023786;28;46418;-78
2023/03/10 12:57:56;;;;;;;2.43;0.90;;;13.40;27.00;;;;;;5030900;28;46348;-79
2023/03/10 13:00:31;;;;;;;4.10;1.03;;;13.30;27.20;;;;;;5030120;28;46658;-78
2023/03/10 13:03:03;;;;;;;3.00;0.70;;;13.30;27.10;;;;;;5032848;28;46481;-78